createdAt,value
2022-09-26T00:01:25.851Z,100337.19
2022-09-26T00:04:22.344Z,100329.56
2022-09-26T00:07:09.901Z,100332.41
2022-09-26T00:09:56.674Z,100335.13
2022-09-26T00:12:45.637Z,100328.97
2022-09-26T00:15:32.255Z,100325.50
2022-09-26T00:18:18.903Z,100324.78
2022-09-26T00:21:07.373Z,100323.91
2022-09-26T00:23:55.710Z,100328.34
2022-09-26T00:26:42.439Z,100321.25
2022-09-26T00:29:30.565Z,100324.72
2022-09-26T00:32:17.583Z,100326.50
2022-09-26T00:35:04.461Z,100322.84
2022-09-26T00:37:51.124Z,100321.84
2022-09-26T00:40:38.728Z,100327.97
2022-09-26T00:43:28.311Z,100318.94
2022-09-26T00:46:26.933Z,100316.28
2022-09-26T00:49:19.481Z,100311.00
2022-09-26T00:52:11.189Z,100300.72
2022-09-26T00:55:02.480Z,100313.78
2022-09-26T00:57:53.392Z,100312.66
2022-09-26T01:00:42.525Z,100303.78
2022-09-26T01:03:33.043Z,100301.31
2022-09-26T01:06:21.235Z,100298.78
2022-09-26T01:09:09.290Z,100294.34
2022-09-26T01:11:56.622Z,100287.31
2022-09-26T01:14:45.523Z,100288.19
2022-09-26T01:17:32.563Z,100277.56
2022-09-26T01:20:29.402Z,100281.88
2022-09-26T01:24:00.519Z,100282.88
2022-09-26T01:27:21.007Z,100275.13
2022-09-26T01:30:12.764Z,100259.22
2022-09-26T01:33:30.705Z,100272.25
2022-09-26T01:36:49.531Z,100276.75
2022-09-26T01:39:48.845Z,100280.38
2022-09-26T01:42:47.175Z,100272.56
2022-09-26T01:45:45.237Z,100281.63
2022-09-26T01:48:36.352Z,100265.91
2022-09-26T01:51:27.799Z,100269.53
2022-09-26T01:54:20.848Z,100269.88
2022-09-26T01:57:12.792Z,100268.31
2022-09-26T02:00:03.474Z,100268.56
2022-09-26T02:02:52.317Z,100273.31
2022-09-26T02:05:44.700Z,100267.34
2022-09-26T02:08:36.877Z,100263.91
2022-09-26T02:11:24.804Z,100258.84
2022-09-26T02:14:16.374Z,100256.63
2022-09-26T02:17:08.507Z,100250.72
2022-09-26T02:20:00.840Z,100248.00
2022-09-26T02:22:47.858Z,100244.63
2022-09-26T02:25:35.913Z,100236.72
2022-09-26T02:28:23.615Z,100227.13
2022-09-26T02:31:12.429Z,100228.91
2022-09-26T02:33:59.545Z,100229.03
2022-09-26T02:36:49.264Z,100223.91
2022-09-26T02:39:36.937Z,100224.03
2022-09-26T02:42:50.207Z,100216.28
2022-09-26T02:45:43.847Z,100219.84
2022-09-26T02:48:45.842Z,100222.69
2022-09-26T02:51:45.743Z,100220.44
2022-09-26T02:54:46.537Z,100210.88
2022-09-26T02:57:44.989Z,100214.75
2022-09-26T03:00:47.423Z,100214.00
2022-09-26T03:03:42.270Z,100216.81
2022-09-26T03:06:34.552Z,100210.59
2022-09-26T03:09:23.669Z,100210.66
2022-09-26T03:12:14.205Z,100205.22
2022-09-26T03:15:04.183Z,100211.25
2022-09-26T03:17:55.159Z,100208.66
2022-09-26T03:20:42.664Z,100201.53
2022-09-26T03:23:30.168Z,100200.19
2022-09-26T03:26:24.783Z,100191.69
2022-09-26T03:29:20.507Z,100176.09
2022-09-26T03:32:07.268Z,100185.63
2022-09-26T03:34:53.992Z,100184.84
2022-09-26T03:37:41.013Z,100183.19
2022-09-26T03:40:28.237Z,100186.84
2022-09-26T03:43:44.068Z,100183.44
2022-09-26T03:46:39.081Z,100173.97
2022-09-26T03:49:27.351Z,100173.16
2022-09-26T03:52:14.828Z,100179.44
2022-09-26T03:55:02.841Z,100177.69
2022-09-26T03:57:49.657Z,100181.16
2022-09-26T04:00:47.517Z,100170.63
2022-09-26T04:03:37.102Z,100178.50
2022-09-26T04:06:23.910Z,100176.78
2022-09-26T04:09:16.599Z,100180.56
2022-09-26T04:12:07.972Z,100170.34
2022-09-26T04:14:57.498Z,100171.38
2022-09-26T04:17:44.736Z,100168.03
2022-09-26T04:20:33.892Z,100165.50
2022-09-26T04:23:21.496Z,100164.81
2022-09-26T04:26:10.260Z,100157.00
2022-09-26T04:28:59.198Z,100153.63
2022-09-26T04:32:12.620Z,100157.34
2022-09-26T04:35:25.551Z,100156.63
2022-09-26T04:38:13.740Z,100152.25
2022-09-26T04:41:05.280Z,100151.38
2022-09-26T04:43:55.100Z,100144.53
2022-09-26T04:46:41.817Z,100143.78
2022-09-26T04:49:29.932Z,100150.91
2022-09-26T04:52:16.438Z,100147.47
2022-09-26T04:55:05.149Z,100142.34
2022-09-26T04:57:51.949Z,100133.81
2022-09-26T05:00:42.405Z,100139.09
2022-09-26T05:03:29.619Z,100134.03
2022-09-26T05:06:17.750Z,100139.56
2022-09-26T05:09:04.699Z,100136.00
2022-09-26T05:12:05.178Z,100133.63
2022-09-26T05:14:57.005Z,100136.31
2022-09-26T05:17:45.155Z,100137.31
2022-09-26T05:20:31.960Z,100136.44
2022-09-26T05:23:44.393Z,100138.97
2022-09-26T05:26:41.497Z,100141.56
2022-09-26T05:29:29.252Z,100132.53
2022-09-26T05:32:22.356Z,100137.84
2022-09-26T05:35:11.420Z,100137.72
2022-09-26T05:38:01.392Z,100141.16
2022-09-26T05:40:57.102Z,100141.81
2022-09-26T05:43:45.417Z,100132.91
2022-09-26T05:46:34.948Z,100131.91
2022-09-26T05:49:28.671Z,100129.94
2022-09-26T05:52:15.425Z,100135.91
2022-09-26T05:55:02.801Z,100130.47
2022-09-26T05:58:10.079Z,100131.03
2022-09-26T06:01:34.123Z,100130.63
2022-09-26T06:04:31.919Z,100123.75
2022-09-26T06:07:37.825Z,100132.72
2022-09-26T06:10:29.359Z,100136.78
2022-09-26T06:13:21.512Z,100134.28
2022-09-26T06:16:14.490Z,100136.84
2022-09-26T06:19:02.727Z,100131.84
2022-09-26T06:21:49.738Z,100130.66
2022-09-26T06:24:36.987Z,100125.31
2022-09-26T06:27:25.535Z,100124.72
2022-09-26T06:30:12.680Z,100122.81
2022-09-26T06:33:00.105Z,100121.88
2022-09-26T06:36:27.065Z,100120.16
2022-09-26T06:39:14.961Z,100111.56
2022-09-26T06:42:02.782Z,100104.13
2022-09-26T06:44:55.161Z,100104.97
2022-09-26T06:47:44.502Z,100095.22
2022-09-26T06:51:00.612Z,100093.03
2022-09-26T06:53:50.812Z,100096.63
2022-09-26T06:56:44.037Z,100097.13
2022-09-26T06:59:31.832Z,100102.97
2022-09-26T07:02:29.700Z,100096.59
2022-09-26T07:05:42.409Z,100094.13
2022-09-26T07:09:00.506Z,100096.94
2022-09-26T07:12:13.061Z,100106.41
2022-09-26T07:14:53.927Z,100094.78
2022-09-26T07:17:48.166Z,100088.25
2022-09-26T07:20:52.140Z,100089.75
2022-09-26T07:24:00.032Z,100087.41
2022-09-26T07:26:48.550Z,100092.84
2022-09-26T07:29:35.238Z,100085.81
2022-09-26T07:32:22.094Z,100083.00
2022-09-26T07:35:21.714Z,100084.06
2022-09-26T07:38:08.827Z,100082.97
2022-09-26T07:40:55.684Z,100076.41
2022-09-26T07:47:08.431Z,100078.38
2022-09-26T07:50:15.152Z,100080.16
2022-09-26T07:53:19.148Z,100074.38
2022-09-26T07:56:24.886Z,100065.66
2022-09-26T07:59:22.939Z,100075.97
2022-09-26T08:02:24.895Z,100076.38
2022-09-26T08:05:15.629Z,100072.13
2022-09-26T08:08:02.973Z,100072.66
2022-09-26T08:11:16.101Z,100072.09
2022-09-26T08:14:05.663Z,100077.31
2022-09-26T08:16:59.424Z,100073.38
2022-09-26T08:19:46.417Z,100078.69
2022-09-26T08:22:33.090Z,100077.50
2022-09-26T08:25:19.839Z,100078.25
2022-09-26T08:28:13.041Z,100078.75
2022-09-26T08:31:05.256Z,100079.84
2022-09-26T08:33:54.089Z,100036.78
2022-09-26T08:36:43.140Z,100067.84
2022-09-26T08:39:38.104Z,100067.03
2022-09-26T08:43:04.624Z,100055.28
2022-09-26T08:46:32.618Z,100057.19
2022-09-26T08:50:02.757Z,100047.66
2022-09-26T08:52:52.768Z,100048.69
2022-09-26T08:55:44.352Z,100046.88
2022-09-26T08:58:41.007Z,100042.97
2022-09-26T09:01:31.344Z,100034.00
2022-09-26T09:04:46.514Z,100037.06
2022-09-26T09:07:37.116Z,100037.06
2022-09-26T09:10:41.075Z,100014.78
2022-09-26T09:13:57.665Z,100036.63
2022-09-26T09:17:15.182Z,100023.19
2022-09-26T09:20:29.728Z,100024.06
2022-09-26T09:24:11.027Z,100023.78
2022-09-26T09:30:22.646Z,100020.34
2022-09-26T09:33:18.928Z,100002.81
2022-09-26T09:36:19.188Z,100018.69
2022-09-26T09:39:34.205Z,100014.84
2022-09-26T09:42:29.949Z,100016.66
2022-09-26T09:45:20.677Z,100004.31
2022-09-26T09:48:12.046Z,100007.38
2022-09-26T09:51:10.656Z,100005.75
2022-09-26T09:54:14.386Z,99999.66
2022-09-26T09:57:30.240Z,100003.75
2022-09-26T10:00:19.056Z,99995.38
2022-09-26T10:03:38.940Z,99993.28
2022-09-26T10:06:45.794Z,99991.78
2022-09-26T10:09:40.868Z,99982.69
2022-09-26T10:12:51.430Z,99978.38
2022-09-26T10:16:02.153Z,99974.91
2022-09-26T10:19:12.428Z,99967.25
2022-09-26T10:21:59.747Z,99959.22
2022-09-26T10:24:48.985Z,99965.19
2022-09-26T10:27:59.265Z,99952.63
2022-09-26T10:30:50.146Z,99956.72
2022-09-26T10:33:46.122Z,99940.09
2022-09-26T10:36:37.111Z,99943.78
2022-09-26T10:39:43.336Z,99946.16
2022-09-26T10:42:32.457Z,99935.66
2022-09-26T10:45:27.489Z,99940.13
2022-09-26T10:48:48.051Z,99937.16
2022-09-26T10:52:04.676Z,99941.97
2022-09-26T10:54:57.465Z,99933.75
2022-09-26T10:57:47.244Z,99934.06
2022-09-26T11:00:41.227Z,99912.00
2022-09-26T11:03:42.585Z,99925.69
2022-09-26T11:06:45.078Z,99925.50
2022-09-26T11:09:41.999Z,99924.84
2022-09-26T11:13:02.429Z,99923.16
2022-09-26T11:16:01.504Z,99923.25
2022-09-26T11:18:57.283Z,99927.31
2022-09-26T11:21:51.542Z,99921.09
2022-09-26T11:24:46.080Z,99912.13
2022-09-26T11:27:44.014Z,99915.81
2022-09-26T11:30:42.068Z,99909.91
2022-09-26T11:33:30.573Z,99910.38
2022-09-26T11:37:11.620Z,99905.03
2022-09-26T11:40:13.575Z,99897.03
2022-09-26T11:43:13.634Z,99902.66
2022-09-26T11:46:22.486Z,99901.84
2022-09-26T11:49:39.754Z,99905.81
2022-09-26T11:53:16.028Z,99881.97
2022-09-26T11:56:25.187Z,99875.88
2022-09-26T11:59:28.937Z,99872.25
2022-09-26T12:02:40.073Z,99864.69
2022-09-26T12:05:35.276Z,99864.84
2022-09-26T12:08:48.214Z,99854.84
2022-09-26T12:11:45.569Z,99848.31
2022-09-26T12:14:40.562Z,99854.63
2022-09-26T12:17:41.040Z,99841.75
2022-09-26T12:20:40.272Z,99842.84
2022-09-26T12:23:33.831Z,99833.97
2022-09-26T12:26:27.693Z,99830.84
2022-09-26T12:29:32.317Z,99834.59
2022-09-26T12:32:34.955Z,99831.06
2022-09-26T12:35:35.871Z,99829.94
2022-09-26T12:38:35.733Z,99828.50
2022-09-26T12:41:42.890Z,99820.38
2022-09-26T12:44:49.066Z,99818.25
2022-09-26T12:48:00.540Z,99802.91
2022-09-26T12:50:59.451Z,99796.78
2022-09-26T12:54:10.074Z,99794.63
2022-09-26T12:57:04.446Z,99793.03
2022-09-26T13:00:12.967Z,99794.22
2022-09-26T13:03:32.995Z,99793.56
2022-09-26T13:07:14.842Z,99791.47
2022-09-26T13:10:17.308Z,99782.31
2022-09-26T13:13:31.368Z,99793.47
2022-09-26T13:16:31.767Z,99787.44
2022-09-26T13:19:25.112Z,99779.81
2022-09-26T13:22:27.651Z,99775.22
2022-09-26T13:25:20.891Z,99784.63
2022-09-26T13:28:14.986Z,99780.78
2022-09-26T13:31:06.712Z,99777.16
2022-09-26T13:34:03.419Z,99772.34
2022-09-26T13:36:51.129Z,99760.16
2022-09-26T13:39:48.209Z,99767.00
2022-09-26T13:42:42.870Z,99762.09
2022-09-26T13:45:39.959Z,99755.91
2022-09-26T13:48:35.944Z,99753.78
2022-09-26T13:51:27.423Z,99744.59
2022-09-26T13:54:21.809Z,99749.06
2022-09-26T13:57:31.891Z,99747.34
2022-09-26T14:00:49.443Z,99736.63
2022-09-26T14:03:42.423Z,99736.25
2022-09-26T14:06:34.286Z,99738.81
2022-09-26T14:09:25.354Z,99738.81
2022-09-26T14:12:31.678Z,99742.84
2022-09-26T14:15:22.856Z,99721.81
2022-09-26T14:18:23.483Z,99722.84
2022-09-26T14:21:19.282Z,99724.78
2022-09-26T14:24:30.761Z,99717.81
2022-09-26T14:27:44.426Z,99712.81
2022-09-26T14:30:33.482Z,99706.16
2022-09-26T14:33:25.332Z,99696.03
2022-09-26T14:36:24.870Z,99700.84
2022-09-26T14:39:37.094Z,99698.94
2022-09-26T14:42:27.043Z,99696.16
2022-09-26T14:45:23.173Z,99691.31
2022-09-26T14:48:17.401Z,99687.81
2022-09-26T14:51:22.656Z,99685.28
2022-09-26T14:54:22.581Z,99679.16
2022-09-26T14:57:21.631Z,99675.72
2022-09-26T15:00:36.761Z,99671.44
2022-09-26T15:03:24.733Z,99668.69
2022-09-26T15:06:14.733Z,99668.97
2022-09-26T15:09:10.429Z,99648.66
2022-09-26T15:12:00.452Z,99658.72
2022-09-26T15:14:52.983Z,99658.94
2022-09-26T15:17:41.912Z,99650.41
2022-09-26T15:20:32.150Z,99654.03
2022-09-26T15:23:24.765Z,99645.38
2022-09-26T15:26:11.750Z,99651.25
2022-09-26T15:28:59.495Z,99637.81
2022-09-26T15:31:47.282Z,99640.06
2022-09-26T15:34:36.180Z,99644.00
2022-09-26T15:37:24.900Z,99645.22
2022-09-26T15:40:17.604Z,99640.47
2022-09-26T15:43:11.741Z,99642.19
2022-09-26T15:45:59.487Z,99637.19
2022-09-26T15:48:45.878Z,99644.97
2022-09-26T15:51:39.110Z,99647.41
2022-09-26T15:54:29.686Z,99638.66
2022-09-26T15:57:17.907Z,99643.78
2022-09-26T16:00:05.447Z,99641.00
2022-09-26T16:02:52.488Z,99631.13
2022-09-26T16:05:39.281Z,99633.22
2022-09-26T16:08:36.489Z,99627.56
2022-09-26T16:11:24.195Z,99627.44
2022-09-26T16:14:25.823Z,99624.78
2022-09-26T16:17:20.317Z,99625.19
2022-09-26T16:20:26.003Z,99623.72
2022-09-26T16:23:27.249Z,99617.09
2022-09-26T16:26:23.486Z,99613.66
2022-09-26T16:29:10.965Z,99613.84
2022-09-26T16:31:59.580Z,99615.53
2022-09-26T16:34:46.505Z,99604.44
2022-09-26T16:37:33.160Z,99610.81
2022-09-26T16:40:20.116Z,99614.88
2022-09-26T16:43:19.054Z,99597.59
2022-09-26T16:46:09.416Z,99605.69
2022-09-26T16:48:59.570Z,99603.19
2022-09-26T16:52:29.115Z,99601.09
2022-09-26T16:55:16.123Z,99601.44
2022-09-26T16:58:05.691Z,99595.06
2022-09-26T17:01:10.103Z,99591.97
2022-09-26T17:03:58.049Z,99591.66
2022-09-26T17:06:44.970Z,99585.31
2022-09-26T17:09:33.364Z,99590.75
2022-09-26T17:12:22.601Z,99584.16
2022-09-26T17:15:20.019Z,99587.00
2022-09-26T17:18:09.028Z,99580.16
2022-09-26T17:20:57.173Z,99583.88
2022-09-26T17:23:44.186Z,99582.16
2022-09-26T17:26:34.971Z,99581.13
2022-09-26T17:29:26.381Z,99583.09
2022-09-26T17:32:16.518Z,99587.94
2022-09-26T17:35:06.146Z,99583.59
2022-09-26T17:37:53.111Z,99581.78
2022-09-26T17:40:43.897Z,99582.81
2022-09-26T17:43:37.332Z,99580.53
2022-09-26T17:46:24.276Z,99582.25
2022-09-26T17:49:16.840Z,99567.81
2022-09-26T17:52:11.091Z,99568.16
2022-09-26T17:55:01.535Z,99561.78
2022-09-26T17:57:48.564Z,99565.28
2022-09-26T18:00:38.969Z,99560.25
2022-09-26T18:03:28.782Z,99561.31
2022-09-26T18:06:15.642Z,99548.97
2022-09-26T18:09:10.249Z,99559.22
2022-09-26T18:12:00.880Z,99561.19
2022-09-26T18:14:47.738Z,99557.00
2022-09-26T18:17:35.965Z,99552.06
2022-09-26T18:20:28.358Z,99553.50
2022-09-26T18:23:18.975Z,99555.59
2022-09-26T18:26:07.508Z,99554.56
2022-09-26T18:28:56.859Z,99556.09
2022-09-26T18:31:46.311Z,99549.53
2022-09-26T18:34:34.396Z,99551.03
2022-09-26T18:37:21.150Z,99546.88
2022-09-26T18:40:11.315Z,99540.41
2022-09-26T18:42:59.118Z,99552.72
2022-09-26T18:45:46.093Z,99548.81
2022-09-26T18:48:36.267Z,99547.25
2022-09-26T18:51:24.304Z,99548.00
2022-09-26T18:54:14.448Z,99545.63
2022-09-26T18:57:18.205Z,99538.31
2022-09-26T19:00:05.837Z,99539.84
2022-09-26T19:02:52.725Z,99537.38
2022-09-26T19:05:39.581Z,99538.31
2022-09-26T19:08:35.326Z,99529.78
2022-09-26T19:11:23.689Z,99539.84
2022-09-26T19:14:15.027Z,99537.09
2022-09-26T19:17:01.874Z,99537.38
2022-09-26T19:19:48.679Z,99541.19
2022-09-26T19:22:35.270Z,99533.41
2022-09-26T19:25:23.492Z,99533.75
2022-09-26T19:28:16.313Z,99526.38
2022-09-26T19:31:03.884Z,99518.22
2022-09-26T19:33:50.960Z,99525.78
2022-09-26T19:36:37.974Z,99520.56
2022-09-26T19:39:24.777Z,99507.09
2022-09-26T19:42:14.468Z,99503.66
2022-09-26T19:45:01.921Z,99509.00
2022-09-26T19:47:51.108Z,99510.72
2022-09-26T19:50:40.167Z,99511.34
2022-09-26T19:53:27.048Z,99507.56
2022-09-26T19:56:13.673Z,99515.16
2022-09-26T19:59:02.050Z,99509.88
2022-09-26T20:01:49.002Z,99506.72
2022-09-26T20:04:35.569Z,99506.72
2022-09-26T20:07:22.391Z,99509.88
2022-09-26T20:10:15.755Z,99504.28
2022-09-26T20:13:04.108Z,99494.94
2022-09-26T20:15:52.807Z,99492.56
2022-09-26T20:18:39.173Z,99492.69
2022-09-26T20:21:29.252Z,99488.03
2022-09-26T20:24:21.219Z,99490.78
2022-09-26T20:27:11.852Z,99481.94
2022-09-26T20:30:15.753Z,99484.50
2022-09-26T20:33:04.325Z,99480.03
2022-09-26T20:35:54.009Z,99480.41
2022-09-26T20:38:43.571Z,99472.06
2022-09-26T20:41:33.021Z,99469.63
2022-09-26T20:44:27.067Z,99468.56
2022-09-26T20:47:18.511Z,99465.03
2022-09-26T20:50:06.948Z,99464.47
2022-09-26T20:52:53.536Z,99459.97
2022-09-26T20:55:44.015Z,99461.03
2022-09-26T20:58:30.699Z,99456.31
2022-09-26T21:01:19.305Z,99451.50
2022-09-26T21:04:05.990Z,99450.59
2022-09-26T21:06:54.024Z,99441.69
2022-09-26T21:09:41.881Z,99439.22
2022-09-26T21:12:28.635Z,99436.34
2022-09-26T21:15:15.578Z,99433.63
2022-09-26T21:18:04.879Z,99430.22
2022-09-26T21:20:52.083Z,99426.13
2022-09-26T21:23:42.720Z,99427.63
2022-09-26T21:26:31.318Z,99433.25
2022-09-26T21:29:18.677Z,99427.56
2022-09-26T21:32:08.631Z,99418.34
2022-09-26T21:34:59.591Z,99412.84
2022-09-26T21:37:47.864Z,99416.84
2022-09-26T21:40:40.907Z,99415.88
2022-09-26T21:43:32.058Z,99413.63
2022-09-26T21:46:18.630Z,99411.16
2022-09-26T21:49:05.314Z,99400.34
2022-09-26T21:51:56.713Z,99402.16
2022-09-26T21:54:45.338Z,99398.63
2022-09-26T21:57:38.915Z,99395.19
2022-09-26T22:00:25.504Z,99393.88
2022-09-26T22:03:12.192Z,99395.09
2022-09-26T22:06:01.487Z,99394.63
2022-09-26T22:08:51.527Z,99390.81
2022-09-26T22:11:39.864Z,99380.59
2022-09-26T22:14:28.746Z,99375.81
2022-09-26T22:17:15.475Z,99377.84
2022-09-26T22:20:02.877Z,99375.94
2022-09-26T22:22:50.087Z,99365.97
2022-09-26T22:25:40.800Z,99363.59
2022-09-26T22:28:29.841Z,99356.75
2022-09-26T22:31:18.642Z,99347.91
2022-09-26T22:34:05.725Z,99342.75
2022-09-26T22:36:52.211Z,99325.97
2022-09-26T22:39:38.989Z,99338.66
2022-09-26T22:42:25.669Z,99337.72
2022-09-26T22:45:12.691Z,99334.78
2022-09-26T22:48:01.027Z,99338.75
2022-09-26T22:50:47.824Z,99329.56
2022-09-26T22:53:36.780Z,99325.38
2022-09-26T22:56:23.284Z,99307.88
2022-09-26T22:59:11.045Z,99318.41
2022-09-26T23:01:58.158Z,99313.66
2022-09-26T23:04:48.866Z,99316.50
2022-09-26T23:07:35.476Z,99304.66
2022-09-26T23:10:22.836Z,99302.94
2022-09-26T23:13:09.734Z,99288.63
2022-09-26T23:15:56.636Z,99286.75
2022-09-26T23:18:44.477Z,99278.41
2022-09-26T23:21:32.446Z,99279.94
2022-09-26T23:24:19.141Z,99277.28
2022-09-26T23:27:05.945Z,99267.69
2022-09-26T23:29:52.582Z,99261.34
2022-09-26T23:32:39.280Z,99253.56
2022-09-26T23:35:25.993Z,99257.75
2022-09-26T23:38:14.121Z,99254.06
2022-09-26T23:41:01.066Z,99249.81
2022-09-26T23:43:47.808Z,99249.44
2022-09-26T23:46:34.799Z,99248.09
2022-09-26T23:49:21.569Z,99255.78
2022-09-26T23:52:08.332Z,99254.06
2022-09-26T23:54:56.519Z,99250.38
2022-09-26T23:57:43.433Z,99246.47
